Nanton, Canada
Current Conditions -  °F | °C
As of 5:00 AM on Thursday 27 Nov 2014 (Local Time) from CYYC Reporting Station
Light Snow Light Snow  
Wind Chill: 17°   Ceiling: 700
Heat Index: 25°   Visibility: 1.5mi
Dew Point: 23°   Wind: 7mph
Humidity: 93%   Direction: 120°ESE
Pressure: 29.76"   Gusts: NA
Location:  50.35°N, 113.77°W
Report Text: CYYC 271200Z 12006KT 1 1/2SM -SN VV007 M04/M05 A2976 RMK SN8 /S03/ SNOW COVER/MUCH LOOSE SLP130
Loading
Personal Weather Stations






























Interactive Weather Map New forecast layout! Learn more

10-Day Weather Forecast

Advertisements
Track Severe Weather on mobile